Time;durP1;ratioP1;P1;durP2;ratioP2;P2;SDS_P1;SDS_P2;PMS_P1;PMS_P2;Temp;Humidity;BMP_temperature;BMP_pressure;BME280_temperature;BME280_humidity;BME280_pressure;Samples;Min_cycle;Max_cycle;Signal;HPM_P1;HPM_P2
2023/04/13 00:01:37;;;;;;;3.83;0.77;;;10.20;99.90;;;;;;5022002;28;20263;-34
2023/04/13 00:04:04;;;;;;;3.13;0.90;;;10.30;99.90;;;;;;5013285;28;21157;-34
2023/04/13 00:06:37;;;;;;;2.07;0.63;;;10.20;99.90;;;;;;5018397;28;20300;-34
2023/04/13 00:09:06;;;;;;;3.50;0.80;;;10.20;99.90;;;;;;5025547;28;20725;-34
2023/04/13 00:11:34;;;;;;;4.00;1.40;;;10.30;99.90;;;;;;5022463;28;20225;-34
2023/04/13 00:14:03;;;;;;;3.23;1.10;;;10.30;99.90;;;;;;4987224;28;20204;-34
2023/04/13 00:16:31;;;;;;;4.57;1.10;;;10.30;99.90;;;;;;5008744;28;20220;-34
2023/04/13 00:19:01;;;;;;;5.50;1.03;;;10.30;99.90;;;;;;5009358;28;20672;-34
2023/04/13 00:21:28;;;;;;;6.67;1.20;;;10.30;99.90;;;;;;5017859;28;20315;-34
2023/04/13 00:23:57;;;;;;;4.87;1.40;;;10.30;99.90;;;;;;5013396;28;20233;-34
2023/04/13 00:26:25;;;;;;;2.80;1.00;;;10.30;99.90;;;;;;5009644;28;20308;-34
2023/04/13 00:28:54;;;;;;;4.53;1.20;;;10.30;99.90;;;;;;5019155;28;20303;-34
2023/04/13 00:31:24;;;;;;;3.50;1.00;;;10.30;99.90;;;;;;5015940;28;20275;-34
2023/04/13 00:33:54;;;;;;;8.90;1.50;;;10.30;99.90;;;;;;5018774;28;20832;-34
2023/04/13 00:36:26;;;;;;;3.00;1.20;;;10.30;99.90;;;;;;5016463;28;20700;-34
2023/04/13 00:38:56;;;;;;;4.77;1.20;;;10.20;99.90;;;;;;5010653;28;20201;-34
2023/04/13 00:41:26;;;;;;;5.67;1.47;;;10.20;99.90;;;;;;5009813;28;20287;-34
2023/04/13 00:43:57;;;;;;;4.07;1.10;;;10.30;99.90;;;;;;5010047;28;20203;-34
2023/04/13 00:46:25;;;;;;;6.07;1.50;;;10.30;99.90;;;;;;5009806;28;20761;-34
2023/04/13 00:48:57;;;;;;;8.57;1.97;;;10.30;99.90;;;;;;5011786;28;20304;-34
2023/04/13 00:51:29;;;;;;;5.33;1.40;;;10.30;99.90;;;;;;5011762;28;20284;-34
2023/04/13 00:54:01;;;;;;;5.93;1.40;;;10.30;99.90;;;;;;5013734;28;20263;-34
2023/04/13 00:56:28;;;;;;;5.67;1.20;;;10.30;99.90;;;;;;5023581;28;20237;-34
2023/04/13 00:58:59;;;;;;;6.70;1.60;;;10.30;99.90;;;;;;5015374;28;20262;-34
2023/04/13 01:01:29;;;;;;;4.90;1.30;;;10.30;99.90;;;;;;5009232;28;20197;-34
2023/04/13 01:03:58;;;;;;;4.53;1.20;;;10.20;99.90;;;;;;5038409;28;20221;-34
2023/04/13 01:06:42;;;;;;;3.60;1.10;;;10.20;99.90;;;;;;5026456;28;20246;-34
2023/04/13 01:09:19;;;;;;;5.00;1.20;;;10.20;99.90;;;;;;5026930;28;20209;-34
2023/04/13 01:11:53;;;;;;;5.33;1.23;;;10.20;99.90;;;;;;5024018;28;20220;-34
2023/04/13 01:14:23;;;;;;;2.33;0.80;;;10.20;99.90;;;;;;5014513;28;20593;-34
2023/04/13 01:16:56;;;;;;;7.53;1.47;;;10.20;99.90;;;;;;5010244;28;20628;-34
2023/04/13 01:19:55;;;;;;;4.40;1.40;;;10.20;99.90;;;;;;5027324;28;20201;-34
2023/04/13 01:22:28;;;;;;;6.23;1.33;;;10.20;99.90;;;;;;5014470;28;20778;-34
2023/04/13 01:25:34;;;;;;;6.70;1.63;;;10.10;99.90;;;;;;5011362;28;20209;-35
2023/04/13 01:28:21;;;;;;;4.93;1.20;;;10.10;99.90;;;;;;5015829;28;20229;-35
2023/04/13 01:30:52;;;;;;;3.93;1.10;;;10.10;99.90;;;;;;5009822;28;20221;-35
2023/04/13 01:33:20;;;;;;;4.27;1.00;;;10.10;99.90;;;;;;5020008;28;20340;-35
2023/04/13 01:35:54;;;;;;;6.77;1.23;;;10.10;99.90;;;;;;5021495;28;20232;-35
2023/04/13 01:38:25;;;;;;;4.47;1.03;;;10.10;99.90;;;;;;5016482;28;20215;-35
2023/04/13 01:40:55;;;;;;;3.97;1.20;;;10.10;99.90;;;;;;5023087;28;20200;-35
2023/04/13 01:43:26;;;;;;;3.67;0.90;;;10.10;99.90;;;;;;5026198;28;20217;-35
2023/04/13 01:45:59;;;;;;;4.17;1.10;;;10.10;99.90;;;;;;5017820;28;20300;-35
2023/04/13 01:48:47;;;;;;;5.67;1.10;;;10.20;99.90;;;;;;5013462;28;20236;-35
2023/04/13 01:51:19;;;;;;;5.73;1.50;;;10.10;99.90;;;;;;5015243;28;20233;-35
2023/04/13 01:54:11;;;;;;;6.67;1.30;;;10.10;99.90;;;;;;5006562;28;20743;-35
2023/04/13 01:56:43;;;;;;;3.40;1.13;;;10.00;99.90;;;;;;5013086;28;20238;-35
2023/04/13 01:59:15;;;;;;;5.30;1.40;;;10.00;99.90;;;;;;5023386;28;20296;-35
2023/04/13 02:01:45;;;;;;;4.43;0.90;;;10.00;99.90;;;;;;5011430;28;20701;-35
2023/04/13 02:04:17;;;;;;;5.20;1.30;;;10.00;99.90;;;;;;5007226;28;20665;-36
2023/04/13 02:06:51;;;;;;;3.77;0.90;;;10.00;99.90;;;;;;5010225;28;20734;-35
2023/04/13 02:09:18;;;;;;;3.23;1.10;;;10.00;99.90;;;;;;5017172;28;21665;-35
2023/04/13 02:11:48;;;;;;;4.27;1.17;;;10.00;99.90;;;;;;5014725;28;20200;-35
2023/04/13 02:14:20;;;;;;;5.03;1.10;;;10.00;99.90;;;;;;5011997;28;20247;-35
2023/04/13 02:16:47;;;;;;;5.17;1.33;;;10.00;99.90;;;;;;5000953;28;20225;-35
2023/04/13 02:19:20;;;;;;;6.13;1.40;;;10.00;99.90;;;;;;5005556;28;20213;-35
2023/04/13 02:21:50;;;;;;;4.20;1.10;;;10.10;99.90;;;;;;5024226;28;20201;-35
2023/04/13 02:24:17;;;;;;;3.50;1.23;;;10.10;99.90;;;;;;5007404;28;20237;-35
2023/04/13 02:26:44;;;;;;;3.13;0.80;;;10.10;99.90;;;;;;5005257;28;20296;-35
2023/04/13 02:29:12;;;;;;;4.30;1.23;;;10.10;99.90;;;;;;5019678;28;20574;-35
2023/04/13 02:31:42;;;;;;;4.90;1.53;;;10.10;99.90;;;;;;5009825;28;20220;-35
2023/04/13 02:34:12;;;;;;;3.90;0.80;;;10.10;99.90;;;;;;5010449;28;20193;-35
2023/04/13 02:36:45;;;;;;;6.83;1.03;;;10.10;99.90;;;;;;5017623;28;20308;-35
2023/04/13 02:39:17;;;;;;;2.30;0.70;;;10.10;99.90;;;;;;5003184;28;20687;-36
2023/04/13 02:41:49;;;;;;;2.27;0.63;;;10.10;99.90;;;;;;5004287;28;20218;-35
2023/04/13 02:44:18;;;;;;;3.70;0.87;;;10.10;99.90;;;;;;5011086;28;20305;-35
2023/04/13 02:46:51;;;;;;;1.93;0.63;;;10.10;99.90;;;;;;5004834;28;20640;-36
2023/04/13 02:49:18;;;;;;;5.47;0.90;;;10.10;99.90;;;;;;5021167;28;20662;-35
2023/04/13 02:51:47;;;;;;;2.00;0.70;;;10.10;99.90;;;;;;5005410;28;20206;-35
2023/04/13 02:54:15;;;;;;;4.27;0.97;;;10.00;99.90;;;;;;5011720;28;20275;-35
2023/04/13 02:56:43;;;;;;;1.63;0.70;;;10.00;99.90;;;;;;4988988;28;20248;-35
2023/04/13 02:59:13;;;;;;;1.10;0.60;;;10.00;99.90;;;;;;5003739;28;20632;-35
2023/04/13 03:01:40;;;;;;;1.13;0.50;;;10.00;99.90;;;;;;5013802;28;20213;-35
2023/04/13 03:04:08;;;;;;;3.50;0.93;;;10.00;99.90;;;;;;5028084;28;20301;-35
2023/04/13 03:06:43;;;;;;;2.83;0.60;;;10.00;99.90;;;;;;5012388;28;20589;-35
2023/04/13 03:09:13;;;;;;;1.73;0.50;;;9.90;99.90;;;;;;5001488;28;20271;-35
2023/04/13 03:11:42;;;;;;;3.63;0.73;;;9.90;99.90;;;;;;5014116;28;20677;-35
2023/04/13 03:14:20;;;;;;;2.23;0.57;;;9.90;99.90;;;;;;5008809;28;20229;-35
2023/04/13 03:16:53;;;;;;;1.80;0.50;;;9.90;99.90;;;;;;5006789;28;20311;-35
2023/04/13 03:19:22;;;;;;;2.63;0.60;;;9.80;99.90;;;;;;5012930;28;21027;-35
2023/04/13 03:21:52;;;;;;;4.17;0.70;;;9.80;99.90;;;;;;5017706;28;20205;-35
2023/04/13 03:24:21;;;;;;;1.03;0.50;;;9.80;99.90;;;;;;5009939;28;20217;-35
2023/04/13 03:26:52;;;;;;;2.37;0.53;;;9.80;99.90;;;;;;5011303;28;20210;-35
2023/04/13 03:29:22;;;;;;;1.40;0.50;;;9.70;99.90;;;;;;5021712;28;20689;-35
2023/04/13 03:31:50;;;;;;;1.83;0.37;;;9.70;99.90;;;;;;5020548;28;20202;-34
2023/04/13 03:34:19;;;;;;;1.30;0.43;;;9.70;99.90;;;;;;5019599;28;20329;-34
2023/04/13 03:36:49;;;;;;;1.70;0.40;;;9.70;99.90;;;;;;5022185;28;20203;-34
2023/04/13 03:39:16;;;;;;;2.50;0.73;;;9.70;99.90;;;;;;5019379;28;20233;-34
2023/04/13 03:41:46;;;;;;;0.90;0.40;;;9.60;99.90;;;;;;5023290;28;20683;-34
2023/04/13 03:44:18;;;;;;;1.63;0.40;;;9.60;99.90;;;;;;5019995;28;20587;-34
2023/04/13 03:46:45;;;;;;;2.03;0.50;;;9.60;99.90;;;;;;5023656;28;20225;-34
2023/04/13 03:49:13;;;;;;;1.47;0.47;;;9.60;99.90;;;;;;5005411;28;20223;-34
2023/04/13 03:51:40;;;;;;;1.73;0.50;;;9.50;99.90;;;;;;5005826;28;20663;-34
2023/04/13 03:54:07;;;;;;;3.70;0.53;;;9.50;99.90;;;;;;5009909;28;20245;-34
2023/04/13 03:56:39;;;;;;;3.60;0.53;;;9.50;99.90;;;;;;5019496;28;20269;-34
2023/04/13 03:59:11;;;;;;;2.70;0.50;;;9.50;99.90;;;;;;5003203;28;20283;-35
2023/04/13 04:01:40;;;;;;;1.40;0.50;;;9.50;99.90;;;;;;5004902;28;20232;-34
2023/04/13 04:04:08;;;;;;;1.93;0.60;;;9.50;99.90;;;;;;5017188;28;20201;-34
2023/04/13 04:06:37;;;;;;;1.50;0.50;;;9.50;99.90;;;;;;5028145;28;20205;-34
2023/04/13 04:09:05;;;;;;;1.27;0.70;;;9.40;99.90;;;;;;5009210;28;20201;-34
2023/04/13 04:11:32;;;;;;;1.37;0.70;;;9.40;99.90;;;;;;5023898;28;20286;-34
2023/04/13 04:14:02;;;;;;;2.03;0.60;;;9.40;99.90;;;;;;5021061;28;20225;-34
2023/04/13 04:16:31;;;;;;;1.23;0.67;;;9.40;99.90;;;;;;5008998;28;20213;-34
2023/04/13 04:18:59;;;;;;;2.13;0.60;;;9.40;99.90;;;;;;5007198;28;20385;-34
2023/04/13 04:21:34;;;;;;;1.53;0.60;;;9.40;99.90;;;;;;5004599;28;20213;-34
2023/04/13 04:24:05;;;;;;;2.07;0.70;;;9.40;99.90;;;;;;5007964;28;20326;-34
2023/04/13 04:26:32;;;;;;;2.30;0.60;;;9.40;99.90;;;;;;5020554;28;20548;-34
2023/04/13 04:29:02;;;;;;;1.83;0.60;;;9.40;99.90;;;;;;5016386;28;20200;-34
2023/04/13 04:31:42;;;;;;;2.57;0.70;;;9.30;99.90;;;;;;5026558;28;20324;-34
2023/04/13 04:34:10;;;;;;;2.00;0.70;;;9.30;99.90;;;;;;5007655;28;20221;-34
2023/04/13 04:36:40;;;;;;;4.27;0.77;;;9.30;99.90;;;;;;5012121;28;20217;-34
2023/04/13 04:39:08;;;;;;;5.73;1.10;;;9.30;99.90;;;;;;5006020;28;20194;-34
2023/04/13 04:41:36;;;;;;;1.67;0.80;;;9.30;99.90;;;;;;5022262;28;20279;-34
2023/04/13 04:44:06;;;;;;;6.57;1.20;;;9.30;99.90;;;;;;5013188;28;20292;-34
2023/04/13 04:46:37;;;;;;;3.90;1.00;;;9.30;99.90;;;;;;5019521;28;20233;-34
2023/04/13 04:49:07;;;;;;;3.73;1.20;;;9.30;99.90;;;;;;5014781;28;20201;-34
2023/04/13 04:51:35;;;;;;;4.47;1.17;;;9.30;99.90;;;;;;5026580;28;20205;-34
2023/04/13 04:54:02;;;;;;;2.63;0.93;;;9.30;99.90;;;;;;5004379;28;20654;-34
2023/04/13 04:56:32;;;;;;;3.63;0.90;;;9.30;99.90;;;;;;5002426;28;20264;-34
2023/04/13 04:59:03;;;;;;;3.23;1.07;;;9.30;99.90;;;;;;5005573;28;21655;-34
2023/04/13 05:01:33;;;;;;;5.00;0.87;;;9.30;99.90;;;;;;5010143;28;20267;-34
2023/04/13 05:04:03;;;;;;;4.53;1.20;;;9.30;99.90;;;;;;5012659;28;20790;-34
2023/04/13 05:06:33;;;;;;;3.80;0.90;;;9.30;99.90;;;;;;5017792;28;20201;-34
2023/04/13 05:09:01;;;;;;;4.70;1.30;;;9.30;99.90;;;;;;5011382;28;20925;-34
2023/04/13 05:11:32;;;;;;;4.87;1.30;;;9.30;99.90;;;;;;5009426;28;20629;-34
2023/04/13 05:14:00;;;;;;;6.63;1.30;;;9.30;99.90;;;;;;5029692;28;20319;-34
2023/04/13 05:16:29;;;;;;;5.33;1.20;;;9.40;99.90;;;;;;5013992;28;20240;-34
2023/04/13 05:18:58;;;;;;;5.67;1.10;;;9.40;99.90;;;;;;5016480;28;20284;-34
2023/04/13 05:21:33;;;;;;;3.33;1.00;;;9.40;99.90;;;;;;5024881;28;20259;-34
2023/04/13 05:24:00;;;;;;;3.07;1.20;;;9.40;99.90;;;;;;5022822;28;20208;-34
2023/04/13 05:26:29;;;;;;;5.80;1.20;;;9.40;99.90;;;;;;5034324;28;20239;-34
2023/04/13 05:29:05;;;;;;;3.70;1.23;;;9.40;99.90;;;;;;5024112;28;20268;-34
2023/04/13 05:31:35;;;;;;;2.57;1.00;;;9.50;99.90;;;;;;5019643;28;20212;-34
2023/04/13 05:34:04;;;;;;;7.73;1.50;;;9.50;99.90;;;;;;5024809;28;20248;-34
2023/04/13 05:36:32;;;;;;;6.20;1.20;;;9.50;99.90;;;;;;5023452;28;20204;-34
2023/04/13 05:39:01;;;;;;;6.43;1.70;;;9.60;99.90;;;;;;5012914;28;20203;-34
2023/04/13 05:41:29;;;;;;;4.60;1.50;;;9.60;99.90;;;;;;5020039;28;20657;-34
2023/04/13 05:44:01;;;;;;;6.03;1.10;;;9.60;99.90;;;;;;5011931;28;20201;-34
2023/04/13 05:46:33;;;;;;;7.87;1.77;;;9.70;99.90;;;;;;5024033;28;20270;-34
2023/04/13 05:49:03;;;;;;;5.63;1.33;;;9.70;99.90;;;;;;5019183;28;20719;-34
2023/04/13 05:51:31;;;;;;;5.73;1.60;;;9.70;99.90;;;;;;5011505;28;20202;-34
2023/04/13 05:54:03;;;;;;;8.13;1.73;;;9.80;99.90;;;;;;5015452;28;20233;-34
2023/04/13 05:56:33;;;;;;;7.63;1.70;;;9.80;99.90;;;;;;5018902;28;20235;-34
2023/04/13 05:59:02;;;;;;;11.60;2.50;;;9.80;99.90;;;;;;5006125;28;20642;-37
2023/04/13 06:01:32;;;;;;;9.33;2.30;;;9.80;99.90;;;;;;5013859;28;20200;-34
2023/04/13 06:04:01;;;;;;;11.17;2.20;;;9.90;99.90;;;;;;5012737;28;20229;-34
2023/04/13 06:06:29;;;;;;;8.70;2.00;;;9.90;99.90;;;;;;5009199;28;20216;-34
2023/04/13 06:08:56;;;;;;;14.17;2.70;;;9.90;99.90;;;;;;5007506;28;20510;-34
2023/04/13 06:11:26;;;;;;;10.53;2.53;;;10.00;99.90;;;;;;5004863;28;20214;-34
2023/04/13 06:13:58;;;;;;;10.27;1.83;;;10.00;99.90;;;;;;5009703;28;20324;-34
2023/04/13 06:16:28;;;;;;;15.57;2.40;;;10.10;99.90;;;;;;5017569;28;20213;-34
2023/04/13 06:18:55;;;;;;;10.80;2.47;;;10.10;99.90;;;;;;5006241;28;20197;-34
2023/04/13 06:21:26;;;;;;;9.77;2.37;;;10.10;99.90;;;;;;5005465;28;20213;-34
2023/04/13 06:23:53;;;;;;;13.70;2.63;;;10.20;99.90;;;;;;5008214;28;20779;-34
2023/04/13 06:26:24;;;;;;;15.50;2.67;;;10.20;99.90;;;;;;5003936;28;20655;-34
2023/04/13 06:28:56;;;;;;;14.00;3.30;;;10.20;99.90;;;;;;5022753;28;20213;-34
2023/04/13 06:31:26;;;;;;;18.03;3.60;;;10.20;99.90;;;;;;5008100;28;20268;-34
2023/04/13 06:33:59;;;;;;;7.80;2.30;;;10.30;99.90;;;;;;5013648;28;20233;-34
2023/04/13 06:36:28;;;;;;;11.97;2.47;;;10.30;99.90;;;;;;5021504;28;20788;-34
2023/04/13 06:38:55;;;;;;;11.00;2.60;;;10.40;99.90;;;;;;5018419;28;20205;-34
2023/04/13 06:41:25;;;;;;;9.30;2.70;;;10.40;99.90;;;;;;5016593;28;20212;-34
2023/04/13 06:43:55;;;;;;;16.77;3.00;;;10.40;99.90;;;;;;5012995;28;20690;-34
2023/04/13 06:46:26;;;;;;;21.70;4.20;;;10.40;99.90;;;;;;5022696;28;20300;-34
2023/04/13 06:48:58;;;;;;;14.47;3.00;;;10.50;99.90;;;;;;5013351;28;20211;-34
2023/04/13 06:51:25;;;;;;;13.73;2.63;;;10.50;99.90;;;;;;5006377;28;20213;-34
2023/04/13 06:53:55;;;;;;;14.23;3.30;;;10.50;99.90;;;;;;5019821;28;20233;-34
2023/04/13 06:56:23;;;;;;;8.67;2.50;;;10.50;99.90;;;;;;5011539;28;20299;-34
2023/04/13 06:58:56;;;;;;;11.80;2.73;;;10.60;99.90;;;;;;5022359;28;20204;-34
2023/04/13 07:01:28;;;;;;;15.03;3.13;;;10.60;99.90;;;;;;5022719;28;20549;-34
2023/04/13 07:04:01;;;;;;;13.97;3.30;;;10.60;99.90;;;;;;5019233;28;20212;-34
2023/04/13 07:06:33;;;;;;;13.60;2.90;;;10.60;99.90;;;;;;5015935;28;20737;-34
2023/04/13 07:09:03;;;;;;;12.07;2.60;;;10.70;99.90;;;;;;5022956;28;20298;-34
2023/04/13 07:11:32;;;;;;;13.53;2.93;;;10.70;99.90;;;;;;5010615;28;20202;-34
2023/04/13 07:13:59;;;;;;;10.90;3.03;;;10.70;99.90;;;;;;5004353;28;20324;-34
2023/04/13 07:16:26;;;;;;;9.53;2.43;;;10.80;99.90;;;;;;5010636;28;20671;-34
2023/04/13 07:18:59;;;;;;;12.17;2.57;;;10.80;99.90;;;;;;5012642;28;20473;-34
2023/04/13 07:21:27;;;;;;;13.13;2.80;;;10.90;99.90;;;;;;5021566;28;20311;-34
2023/04/13 07:23:56;;;;;;;10.00;2.50;;;10.90;99.90;;;;;;5019295;28;20219;-34
2023/04/13 07:26:23;;;;;;;9.77;2.90;;;10.90;99.90;;;;;;5011673;28;20633;-34
2023/04/13 07:28:55;;;;;;;12.40;3.10;;;10.90;99.90;;;;;;5003370;28;20212;-34
2023/04/13 07:31:27;;;;;;;15.00;3.23;;;10.90;99.90;;;;;;5014894;28;20228;-34
2023/04/13 07:33:57;;;;;;;14.03;2.67;;;10.90;99.90;;;;;;5011765;28;20216;-34
2023/04/13 07:36:25;;;;;;;12.90;2.83;;;10.90;99.90;;;;;;5003665;28;20637;-34
2023/04/13 07:38:57;;;;;;;12.53;2.53;;;10.90;99.90;;;;;;5011579;28;20441;-34
2023/04/13 07:41:29;;;;;;;9.00;3.13;;;11.00;99.90;;;;;;5010283;28;20221;-34
2023/04/13 07:43:56;;;;;;;9.50;2.47;;;11.00;99.90;;;;;;5007666;28;20592;-34
2023/04/13 07:46:26;;;;;;;12.97;2.60;;;11.00;99.90;;;;;;5006271;28;20207;-34
2023/04/13 07:48:56;;;;;;;12.87;2.90;;;11.10;99.90;;;;;;5023819;28;20236;-34
2023/04/13 07:51:25;;;;;;;14.63;3.20;;;11.20;99.90;;;;;;5017388;28;20198;-34
2023/04/13 07:53:55;;;;;;;15.83;2.93;;;11.20;99.90;;;;;;5009406;28;20228;-34
2023/04/13 07:56:23;;;;;;;12.13;2.83;;;11.30;99.90;;;;;;5014271;28;20237;-34
2023/04/13 07:58:50;;;;;;;15.17;2.90;;;11.30;99.90;;;;;;5009375;28;20228;-34
2023/04/13 08:01:20;;;;;;;12.37;2.80;;;11.30;99.90;;;;;;5021569;28;20320;-33
2023/04/13 08:03:50;;;;;;;13.97;3.00;;;11.30;99.90;;;;;;5012583;28;20213;-34
2023/04/13 08:06:21;;;;;;;11.20;2.50;;;11.30;99.90;;;;;;5015774;28;20222;-34
2023/04/13 08:08:53;;;;;;;11.20;2.97;;;11.40;99.90;;;;;;5003611;28;20558;-34
2023/04/13 08:11:25;;;;;;;11.90;2.57;;;11.30;99.90;;;;;;5001151;28;20213;-34
2023/04/13 08:13:53;;;;;;;14.33;2.47;;;11.40;99.90;;;;;;5006256;28;20706;-36
2023/04/13 08:16:22;;;;;;;13.10;2.90;;;11.40;99.90;;;;;;5021648;28;20205;-34
2023/04/13 08:18:49;;;;;;;11.80;2.53;;;11.40;99.90;;;;;;5000323;28;20205;-34
2023/04/13 08:21:17;;;;;;;14.50;2.73;;;11.40;99.90;;;;;;5029510;28;20287;-34
2023/04/13 08:23:50;;;;;;;6.47;2.10;;;11.50;99.90;;;;;;5019131;28;20248;-34
2023/04/13 08:26:20;;;;;;;15.73;3.03;;;11.50;99.90;;;;;;5017210;28;20615;-34
2023/04/13 08:28:54;;;;;;;11.60;2.60;;;11.50;99.90;;;;;;5003538;28;20263;-34
2023/04/13 08:31:22;;;;;;;11.27;2.37;;;11.50;99.90;;;;;;4997315;28;20583;-34
2023/04/13 08:33:49;;;;;;;11.20;2.73;;;11.50;99.90;;;;;;5014405;28;20875;-34
2023/04/13 08:36:16;;;;;;;12.80;2.70;;;11.60;99.90;;;;;;5003934;28;20216;-34
2023/04/13 08:38:43;;;;;;;8.67;2.13;;;11.60;99.90;;;;;;5010570;28;20771;-33
2023/04/13 08:41:11;;;;;;;13.30;2.33;;;11.60;99.90;;;;;;5021159;28;20227;-34
2023/04/13 08:43:41;;;;;;;12.07;3.20;;;11.70;99.90;;;;;;5008382;28;20631;-34
2023/04/13 08:46:18;;;;;;;18.00;2.70;;;11.60;99.90;;;;;;5017462;28;20209;-34
2023/04/13 08:48:47;;;;;;;12.30;2.70;;;11.70;99.90;;;;;;5017309;28;20323;-34
2023/04/13 08:51:27;;;;;;;14.33;2.93;;;11.70;99.90;;;;;;5014449;28;20201;-34
2023/04/13 08:53:57;;;;;;;7.23;1.70;;;11.70;99.90;;;;;;5017614;28;20240;-34
2023/04/13 08:56:26;;;;;;;11.13;2.50;;;11.80;99.90;;;;;;5013675;28;20248;-34
2023/04/13 08:59:14;;;;;;;20.10;3.20;;;11.80;99.90;;;;;;5007544;28;20232;-35
2023/04/13 09:01:44;;;;;;;16.97;2.53;;;11.80;99.90;;;;;;5009251;28;20284;-34
2023/04/13 09:04:16;;;;;;;10.13;2.43;;;11.90;99.90;;;;;;5025332;28;20235;-34
2023/04/13 09:06:51;;;;;;;14.30;2.73;;;11.80;99.90;;;;;;5018356;28;20604;-34
2023/04/13 09:09:19;;;;;;;16.70;2.70;;;11.90;99.90;;;;;;5018204;28;20635;-34
2023/04/13 09:11:51;;;;;;;12.87;2.90;;;11.90;99.90;;;;;;5005193;28;20229;-34
2023/04/13 09:14:21;;;;;;;11.60;2.37;;;11.90;99.90;;;;;;5006567;28;20225;-34
2023/04/13 09:16:49;;;;;;;12.13;2.47;;;12.00;99.90;;;;;;4992594;28;20193;-34
2023/04/13 09:19:27;;;;;;;11.57;2.43;;;12.10;99.90;;;;;;5022573;28;20209;-34
2023/04/13 09:21:57;;;;;;;10.40;2.20;;;12.10;99.90;;;;;;5017863;28;20288;-34
2023/04/13 09:24:40;;;;;;;14.30;3.13;;;12.20;99.90;;;;;;5016288;28;20213;-34
2023/04/13 09:27:25;;;;;;;12.07;2.50;;;12.20;99.90;;;;;;5011862;28;20231;-34
2023/04/13 09:29:54;;;;;;;12.43;2.37;;;12.30;99.90;;;;;;5006446;28;20221;-34
2023/04/13 09:32:22;;;;;;;14.07;3.13;;;12.30;99.90;;;;;;5005055;28;20228;-34
2023/04/13 09:35:10;;;;;;;11.50;2.23;;;12.20;99.90;;;;;;5006779;28;20794;-34
2023/04/13 09:37:42;;;;;;;11.50;2.30;;;12.20;99.90;;;;;;5007434;28;20288;-34
2023/04/13 09:40:17;;;;;;;11.10;2.30;;;12.20;99.90;;;;;;5018362;28;20327;-33
2023/04/13 09:42:57;;;;;;;10.40;2.40;;;12.20;99.90;;;;;;5006645;28;20312;-34
2023/04/13 09:45:36;;;;;;;12.30;2.70;;;12.20;99.90;;;;;;5006965;28;20274;-34
2023/04/13 09:48:20;;;;;;;9.07;2.23;;;12.30;99.90;;;;;;5016713;28;20654;-34
2023/04/13 09:51:07;;;;;;;14.43;3.07;;;12.30;99.90;;;;;;5007206;28;20304;-34
2023/04/13 09:53:45;;;;;;;9.80;2.80;;;12.40;99.90;;;;;;5020226;28;20201;-34
2023/04/13 09:56:19;;;;;;;10.73;2.50;;;12.40;99.90;;;;;;5011373;28;20259;-34
2023/04/13 09:58:46;;;;;;;7.23;1.87;;;12.50;99.90;;;;;;5021161;28;20339;-33
2023/04/13 10:01:14;;;;;;;17.17;2.80;;;12.50;99.90;;;;;;5017487;28;20232;-34
2023/04/13 10:03:46;;;;;;;12.37;2.30;;;12.50;99.90;;;;;;5009177;28;20193;-34
2023/04/13 10:06:14;;;;;;;11.77;2.83;;;12.60;99.90;;;;;;5023036;28;21012;-33
2023/04/13 10:08:41;;;;;;;8.83;2.33;;;12.60;99.90;;;;;;5018640;28;20285;-36
2023/04/13 10:11:15;;;;;;;7.77;1.80;;;12.60;99.90;;;;;;5006609;28;20202;-33
2023/04/13 10:13:55;;;;;;;12.53;2.33;;;12.60;99.90;;;;;;5015482;28;20211;-35
2023/04/13 10:16:35;;;;;;;13.80;2.50;;;12.60;99.90;;;;;;5011398;28;20287;-36
2023/04/13 10:19:10;;;;;;;15.80;2.27;;;12.60;99.90;;;;;;5015557;28;20194;-35
2023/04/13 10:21:51;;;;;;;8.63;2.40;;;12.60;99.90;;;;;;5004435;28;20472;-35
2023/04/13 10:24:20;;;;;;;10.20;2.33;;;12.60;99.90;;;;;;5008485;28;20367;-35
2023/04/13 10:26:58;;;;;;;10.87;2.33;;;12.70;99.90;;;;;;5022005;28;20212;-35
2023/04/13 10:29:29;;;;;;;10.73;1.90;;;12.80;99.90;;;;;;5019094;28;20244;-35
2023/04/13 10:32:02;;;;;;;10.00;2.13;;;12.80;99.90;;;;;;5011543;28;20208;-35
2023/04/13 10:34:37;;;;;;;8.53;1.87;;;12.90;99.90;;;;;;5010768;28;20221;-35
2023/04/13 10:37:27;;;;;;;9.83;2.13;;;12.90;99.90;;;;;;5017092;28;20215;-35
2023/04/13 10:40:05;;;;;;;11.43;2.45;;;12.90;99.90;;;;;;5017474;28;20256;-35
2023/04/13 10:42:39;;;;;;;9.50;2.23;;;13.00;99.90;;;;;;5018582;28;20216;-35
2023/04/13 10:45:34;;;;;;;7.33;2.23;;;13.00;99.90;;;;;;5013964;28;20236;-35
2023/04/13 10:48:05;;;;;;;8.17;2.17;;;13.10;99.90;;;;;;5004564;28;20225;-35
2023/04/13 10:50:32;;;;;;;10.67;2.40;;;13.20;99.90;;;;;;5014117;28;20221;-35
2023/04/13 10:53:04;;;;;;;8.37;1.90;;;13.30;99.90;;;;;;5018233;28;20206;-35
2023/04/13 10:55:35;;;;;;;9.27;2.10;;;13.30;99.90;;;;;;5018480;28;20240;-35
2023/04/13 10:58:14;;;;;;;9.07;2.47;;;13.30;99.90;;;;;;5009298;28;20224;-35
2023/04/13 11:00:45;;;;;;;10.13;2.43;;;13.30;99.90;;;;;;5010699;28;20256;-35
2023/04/13 11:03:18;;;;;;;14.60;2.60;;;13.30;99.90;;;;;;5013978;28;20201;-35
2023/04/13 11:06:01;;;;;;;13.02;2.92;;;13.30;99.90;;;;;;5006277;28;20360;-37
2023/04/13 11:08:31;;;;;;;13.03;2.33;;;13.20;99.90;;;;;;5011307;28;20224;-37
2023/04/13 11:10:58;;;;;;;9.73;2.87;;;13.20;99.90;;;;;;5003815;28;20213;-37
2023/04/13 11:13:27;;;;;;;11.02;2.30;;;13.10;99.90;;;;;;5008927;28;20688;-37
2023/04/13 11:16:02;;;;;;;15.73;2.40;;;13.10;99.90;;;;;;5014821;28;20657;-37
2023/04/13 11:18:36;;;;;;;14.17;2.40;;;13.10;99.90;;;;;;5014366;28;20687;-37
2023/04/13 11:21:03;;;;;;;15.10;2.33;;;13.00;99.90;;;;;;5015390;28;20252;-35
2023/04/13 11:23:34;;;;;;;8.17;1.50;;;13.10;99.90;;;;;;5006347;28;20313;-35
2023/04/13 11:26:05;;;;;;;8.70;1.83;;;13.10;99.90;;;;;;5015756;28;20653;-35
2023/04/13 11:28:40;;;;;;;5.70;1.60;;;13.20;99.90;;;;;;5019527;28;20683;-35
2023/04/13 11:31:08;;;;;;;11.60;2.70;;;13.20;99.90;;;;;;5016974;28;20208;-35
2023/04/13 11:33:39;;;;;;;10.13;1.80;;;13.10;99.90;;;;;;5009073;28;20587;-35
2023/04/13 11:36:10;;;;;;;8.03;1.87;;;13.20;99.90;;;;;;5017370;28;20793;-35
2023/04/13 11:38:39;;;;;;;8.33;2.10;;;13.20;99.90;;;;;;5012850;28;20690;-35
2023/04/13 11:41:10;;;;;;;11.50;2.20;;;13.20;99.90;;;;;;5011937;28;20228;-36
2023/04/13 11:43:47;;;;;;;11.07;2.00;;;13.20;99.90;;;;;;5014286;28;20418;-36
2023/04/13 11:46:23;;;;;;;7.13;1.77;;;13.20;99.90;;;;;;5034684;28;20262;-35
2023/04/13 11:48:52;;;;;;;8.40;1.83;;;13.40;99.90;;;;;;5031704;28;20197;-35
2023/04/13 11:51:20;;;;;;;6.20;1.52;;;13.40;99.90;;;;;;5007456;28;20294;-33
2023/04/13 11:53:51;;;;;;;14.23;2.35;;;13.40;99.90;;;;;;5011845;28;20625;-34
2023/04/13 11:56:22;;;;;;;10.13;1.98;;;13.40;99.90;;;;;;5026473;28;20244;-33
2023/04/13 11:58:52;;;;;;;9.33;1.63;;;13.40;99.90;;;;;;5020058;28;20213;-33
2023/04/13 12:01:22;;;;;;;6.93;1.73;;;13.40;99.90;;;;;;5012162;28;20251;-33
2023/04/13 12:04:04;;;;;;;7.03;1.80;;;13.50;99.90;;;;;;5019947;28;20236;-34
2023/04/13 12:06:46;;;;;;;7.17;1.90;;;13.50;99.90;;;;;;5015189;28;20206;-33
2023/04/13 12:09:16;;;;;;;7.07;1.50;;;13.50;99.90;;;;;;5002968;28;20217;-33
2023/04/13 12:11:52;;;;;;;5.20;1.67;;;13.50;99.90;;;;;;5003562;28;20205;-33
2023/04/13 12:14:42;;;;;;;8.57;1.60;;;13.50;99.90;;;;;;5008961;28;20216;-34
2023/04/13 12:17:15;;;;;;;7.40;1.90;;;13.40;99.90;;;;;;5009783;28;20312;-33
2023/04/13 12:19:48;;;;;;;3.20;1.10;;;13.40;99.90;;;;;;5015053;28;20280;-34
2023/04/13 12:22:20;;;;;;;5.57;1.38;;;13.50;99.90;;;;;;5021245;28;20200;-34
2023/04/13 12:24:51;;;;;;;4.60;1.13;;;13.40;99.90;;;;;;5018233;28;20233;-34
2023/04/13 12:27:19;;;;;;;6.77;1.40;;;13.30;99.90;;;;;;5014958;28;20219;-33
2023/04/13 12:29:47;;;;;;;4.23;1.50;;;13.40;99.90;;;;;;5003403;28;20213;-34
2023/04/13 12:32:19;;;;;;;5.80;1.53;;;13.40;99.90;;;;;;5006623;28;20201;-33
2023/04/13 12:34:47;;;;;;;7.57;1.43;;;13.40;99.90;;;;;;5009788;28;20235;-34
2023/04/13 12:37:17;;;;;;;11.82;1.80;;;13.30;99.90;;;;;;5011377;28;20565;-34
2023/04/13 12:39:46;;;;;;;5.55;1.30;;;13.30;99.90;;;;;;5015491;28;20296;-33
2023/04/13 12:42:16;;;;;;;5.60;1.40;;;13.30;99.90;;;;;;5010821;28;20308;-36
2023/04/13 12:44:43;;;;;;;5.27;1.23;;;13.30;99.90;;;;;;5015664;28;20250;-33
2023/04/13 12:47:15;;;;;;;5.00;1.40;;;13.30;99.90;;;;;;5013600;28;20308;-33
2023/04/13 12:49:47;;;;;;;7.53;1.33;;;13.20;99.90;;;;;;5003808;28;20287;-33
2023/04/13 12:52:16;;;;;;;5.53;1.20;;;13.20;99.90;;;;;;5003927;28;21013;-33
2023/04/13 12:54:44;;;;;;;4.80;1.00;;;13.30;99.90;;;;;;5006579;28;20225;-34
2023/04/13 12:57:15;;;;;;;5.13;1.40;;;13.20;99.90;;;;;;5003480;28;20265;-33
2023/04/13 12:59:43;;;;;;;4.50;1.67;;;13.20;99.90;;;;;;5007269;28;20197;-35
2023/04/13 13:02:10;;;;;;;6.07;1.50;;;13.20;99.90;;;;;;5014127;28;20213;-35
2023/04/13 13:04:40;;;;;;;4.63;1.43;;;13.30;99.90;;;;;;5007765;28;20217;-35
2023/04/13 13:07:09;;;;;;;3.77;1.10;;;13.40;99.90;;;;;;5015790;28;20212;-34